sensor_id;sensor_type;location;lat;lon;timestamp;temperature;humidity
21734;DHT22;11029;47.820;10.534;2024-03-23T00:52:37;6.60;65.70
21734;DHT22;11029;47.820;10.534;2024-03-23T00:55:22;6.50;65.70
21734;DHT22;11029;47.820;10.534;2024-03-23T00:58:08;6.40;66.00
21734;DHT22;11029;47.820;10.534;2024-03-23T01:00:53;6.40;66.90
21734;DHT22;11029;47.820;10.534;2024-03-23T01:03:37;6.30;66.90
21734;DHT22;11029;47.820;10.534;2024-03-23T01:06:22;6.30;67.10
21734;DHT22;11029;47.820;10.534;2024-03-23T01:09:06;6.30;67.40
21734;DHT22;11029;47.820;10.534;2024-03-23T01:11:55;6.30;67.20
21734;DHT22;11029;47.820;10.534;2024-03-23T01:14:39;6.40;67.20
21734;DHT22;11029;47.820;10.534;2024-03-23T01:17:24;6.30;66.70
21734;DHT22;11029;47.820;10.534;2024-03-23T01:20:09;6.30;66.50
21734;DHT22;11029;47.820;10.534;2024-03-23T01:22:53;6.30;66.90
21734;DHT22;11029;47.820;10.534;2024-03-23T01:25:38;6.20;66.80
21734;DHT22;11029;47.820;10.534;2024-03-23T01:28:23;6.20;66.60
21734;DHT22;11029;47.820;10.534;2024-03-23T01:31:08;6.20;67.00
21734;DHT22;11029;47.820;10.534;2024-03-23T01:33:52;6.20;67.20
21734;DHT22;11029;47.820;10.534;2024-03-23T01:36:37;6.20;67.10
21734;DHT22;11029;47.820;10.534;2024-03-23T01:39:21;6.20;66.70
21734;DHT22;11029;47.820;10.534;2024-03-23T01:42:06;6.20;66.90
21734;DHT22;11029;47.820;10.534;2024-03-23T01:44:51;6.30;66.90
21734;DHT22;11029;47.820;10.534;2024-03-23T01:47:35;6.30;67.00
21734;DHT22;11029;47.820;10.534;2024-03-23T01:50:20;6.30;66.70
21734;DHT22;11029;47.820;10.534;2024-03-23T01:53:06;6.40;66.70
21734;DHT22;11029;47.820;10.534;2024-03-23T01:55:52;6.40;66.40
21734;DHT22;11029;47.820;10.534;2024-03-23T01:58:37;6.50;66.10
21734;DHT22;11029;47.820;10.534;2024-03-23T02:01:21;6.40;66.10
21734;DHT22;11029;47.820;10.534;2024-03-23T02:04:06;6.40;66.30
21734;DHT22;11029;47.820;10.534;2024-03-23T02:06:50;6.40;66.30
21734;DHT22;11029;47.820;10.534;2024-03-23T02:09:35;6.40;66.50
21734;DHT22;11029;47.820;10.534;2024-03-23T02:12:20;6.30;66.40
21734;DHT22;11029;47.820;10.534;2024-03-23T02:15:05;6.30;66.50
21734;DHT22;11029;47.820;10.534;2024-03-23T02:17:50;6.30;66.80
21734;DHT22;11029;47.820;10.534;2024-03-23T02:20:35;6.20;66.90
21734;DHT22;11029;47.820;10.534;2024-03-23T02:23:20;6.20;67.30
21734;DHT22;11029;47.820;10.534;2024-03-23T02:26:05;6.20;67.20
21734;DHT22;11029;47.820;10.534;2024-03-23T02:28:50;6.20;67.60
21734;DHT22;11029;47.820;10.534;2024-03-23T02:31:35;6.20;67.60
21734;DHT22;11029;47.820;10.534;2024-03-23T02:34:20;6.30;67.80
21734;DHT22;11029;47.820;10.534;2024-03-23T02:37:10;6.30;67.10
21734;DHT22;11029;47.820;10.534;2024-03-23T02:39:56;6.40;66.90
21734;DHT22;11029;47.820;10.534;2024-03-23T02:42:40;6.40;66.90
21734;DHT22;11029;47.820;10.534;2024-03-23T02:45:25;6.50;67.40
21734;DHT22;11029;47.820;10.534;2024-03-23T02:48:10;6.70;66.00
21734;DHT22;11029;47.820;10.534;2024-03-23T02:50:55;6.70;66.40
21734;DHT22;11029;47.820;10.534;2024-03-23T02:53:39;6.80;65.80
21734;DHT22;11029;47.820;10.534;2024-03-23T02:56:24;6.90;65.50
21734;DHT22;11029;47.820;10.534;2024-03-23T02:59:08;6.90;64.70
21734;DHT22;11029;47.820;10.534;2024-03-23T03:01:53;6.90;65.10
21734;DHT22;11029;47.820;10.534;2024-03-23T03:04:38;7.00;64.80
21734;DHT22;11029;47.820;10.534;2024-03-23T03:07:23;7.10;64.90
21734;DHT22;11029;47.820;10.534;2024-03-23T03:10:07;7.20;64.90
21734;DHT22;11029;47.820;10.534;2024-03-23T03:12:55;7.30;64.40
21734;DHT22;11029;47.820;10.534;2024-03-23T03:15:41;7.40;64.20
21734;DHT22;11029;47.820;10.534;2024-03-23T03:18:27;7.50;64.10
21734;DHT22;11029;47.820;10.534;2024-03-23T03:21:12;7.60;63.90
21734;DHT22;11029;47.820;10.534;2024-03-23T03:23:56;7.60;63.60
21734;DHT22;11029;47.820;10.534;2024-03-23T03:26:41;7.70;63.70
21734;DHT22;11029;47.820;10.534;2024-03-23T03:29:26;7.70;63.50
21734;DHT22;11029;47.820;10.534;2024-03-23T03:32:18;7.70;63.50
21734;DHT22;11029;47.820;10.534;2024-03-23T03:35:03;7.60;63.00
21734;DHT22;11029;47.820;10.534;2024-03-23T03:37:48;7.50;62.90
21734;DHT22;11029;47.820;10.534;2024-03-23T03:40:33;7.30;64.10
21734;DHT22;11029;47.820;10.534;2024-03-23T03:43:17;7.30;64.40
21734;DHT22;11029;47.820;10.534;2024-03-23T03:46:02;7.20;63.90
21734;DHT22;11029;47.820;10.534;2024-03-23T03:48:46;7.20;64.40
21734;DHT22;11029;47.820;10.534;2024-03-23T03:51:32;7.10;64.00
21734;DHT22;11029;47.820;10.534;2024-03-23T03:54:17;7.00;64.90
21734;DHT22;11029;47.820;10.534;2024-03-23T03:57:02;7.00;64.90
21734;DHT22;11029;47.820;10.534;2024-03-23T03:59:47;6.90;65.30
21734;DHT22;11029;47.820;10.534;2024-03-23T04:02:32;6.90;65.50
21734;DHT22;11029;47.820;10.534;2024-03-23T04:05:16;6.80;65.80
21734;DHT22;11029;47.820;10.534;2024-03-23T04:08:02;6.60;65.40
21734;DHT22;11029;47.820;10.534;2024-03-23T04:10:47;6.60;66.10
21734;DHT22;11029;47.820;10.534;2024-03-23T04:13:32;6.60;66.20
21734;DHT22;11029;47.820;10.534;2024-03-23T04:16:30;6.80;66.20
21734;DHT22;11029;47.820;10.534;2024-03-23T04:19:18;6.90;66.20
21734;DHT22;11029;47.820;10.534;2024-03-23T04:22:02;6.90;66.10
21734;DHT22;11029;47.820;10.534;2024-03-23T04:24:47;6.90;65.30
21734;DHT22;11029;47.820;10.534;2024-03-23T04:27:38;6.80;65.30
21734;DHT22;11029;47.820;10.534;2024-03-23T04:30:24;6.70;65.80
21734;DHT22;11029;47.820;10.534;2024-03-23T04:33:09;6.60;66.00
21734;DHT22;11029;47.820;10.534;2024-03-23T04:35:54;6.60;66.20
21734;DHT22;11029;47.820;10.534;2024-03-23T04:38:39;6.60;66.60
21734;DHT22;11029;47.820;10.534;2024-03-23T04:41:24;6.50;67.00
21734;DHT22;11029;47.820;10.534;2024-03-23T04:44:08;6.40;67.30
21734;DHT22;11029;47.820;10.534;2024-03-23T04:46:53;6.40;67.50
21734;DHT22;11029;47.820;10.534;2024-03-23T04:49:38;6.40;67.50
21734;DHT22;11029;47.820;10.534;2024-03-23T04:52:22;6.40;67.10
21734;DHT22;11029;47.820;10.534;2024-03-23T04:55:08;6.50;67.00
21734;DHT22;11029;47.820;10.534;2024-03-23T04:57:52;6.50;67.50
21734;DHT22;11029;47.820;10.534;2024-03-23T05:00:37;6.50;67.80
21734;DHT22;11029;47.820;10.534;2024-03-23T05:03:22;6.50;68.00
21734;DHT22;11029;47.820;10.534;2024-03-23T05:06:08;6.50;68.00
21734;DHT22;11029;47.820;10.534;2024-03-23T05:08:52;6.60;68.30
21734;DHT22;11029;47.820;10.534;2024-03-23T05:11:38;6.70;68.00
21734;DHT22;11029;47.820;10.534;2024-03-23T05:14:22;6.70;67.80
21734;DHT22;11029;47.820;10.534;2024-03-23T05:17:07;6.70;67.80
21734;DHT22;11029;47.820;10.534;2024-03-23T05:19:52;6.80;67.50
21734;DHT22;11029;47.820;10.534;2024-03-23T05:22:36;6.80;67.30
21734;DHT22;11029;47.820;10.534;2024-03-23T05:25:21;6.80;67.20
21734;DHT22;11029;47.820;10.534;2024-03-23T05:28:06;6.80;68.00
21734;DHT22;11029;47.820;10.534;2024-03-23T05:30:52;6.90;67.20
21734;DHT22;11029;47.820;10.534;2024-03-23T05:33:37;7.40;66.50
21734;DHT22;11029;47.820;10.534;2024-03-23T05:36:25;7.90;65.20
21734;DHT22;11029;47.820;10.534;2024-03-23T05:39:09;8.20;64.70
21734;DHT22;11029;47.820;10.534;2024-03-23T05:41:54;8.30;64.30
21734;DHT22;11029;47.820;10.534;2024-03-23T05:44:38;8.50;63.60
21734;DHT22;11029;47.820;10.534;2024-03-23T05:47:23;8.50;63.40
21734;DHT22;11029;47.820;10.534;2024-03-23T05:50:08;8.60;63.10
21734;DHT22;11029;47.820;10.534;2024-03-23T05:52:55;8.60;63.20
21734;DHT22;11029;47.820;10.534;2024-03-23T05:55:40;8.60;63.20
21734;DHT22;11029;47.820;10.534;2024-03-23T05:58:24;8.60;63.40
21734;DHT22;11029;47.820;10.534;2024-03-23T06:01:10;8.70;63.20
21734;DHT22;11029;47.820;10.534;2024-03-23T06:03:54;8.80;62.70
21734;DHT22;11029;47.820;10.534;2024-03-23T06:06:39;8.90;62.60
21734;DHT22;11029;47.820;10.534;2024-03-23T06:09:24;8.90;62.50
21734;DHT22;11029;47.820;10.534;2024-03-23T06:12:09;9.00;62.60
21734;DHT22;11029;47.820;10.534;2024-03-23T06:14:54;9.20;61.90
21734;DHT22;11029;47.820;10.534;2024-03-23T06:17:39;9.40;61.20
21734;DHT22;11029;47.820;10.534;2024-03-23T06:20:24;9.70;60.30
21734;DHT22;11029;47.820;10.534;2024-03-23T06:23:09;10.10;59.80
21734;DHT22;11029;47.820;10.534;2024-03-23T06:25:54;10.40;59.10
21734;DHT22;11029;47.820;10.534;2024-03-23T06:28:38;10.80;57.20
21734;DHT22;11029;47.820;10.534;2024-03-23T06:31:23;11.10;56.80
21734;DHT22;11029;47.820;10.534;2024-03-23T06:34:07;11.20;55.80
21734;DHT22;11029;47.820;10.534;2024-03-23T06:36:52;11.20;55.70
21734;DHT22;11029;47.820;10.534;2024-03-23T06:39:37;11.30;55.20
21734;DHT22;11029;47.820;10.534;2024-03-23T06:42:22;11.30;55.00
21734;DHT22;11029;47.820;10.534;2024-03-23T06:45:07;11.30;56.00
21734;DHT22;11029;47.820;10.534;2024-03-23T06:47:52;11.20;56.50
21734;DHT22;11029;47.820;10.534;2024-03-23T06:50:40;11.20;56.80
21734;DHT22;11029;47.820;10.534;2024-03-23T06:53:24;11.20;56.00
21734;DHT22;11029;47.820;10.534;2024-03-23T06:56:09;11.30;55.30
21734;DHT22;11029;47.820;10.534;2024-03-23T06:58:54;11.40;55.40
21734;DHT22;11029;47.820;10.534;2024-03-23T07:01:38;11.50;56.20
21734;DHT22;11029;47.820;10.534;2024-03-23T07:04:23;11.40;56.50
21734;DHT22;11029;47.820;10.534;2024-03-23T07:07:08;11.10;58.90
21734;DHT22;11029;47.820;10.534;2024-03-23T07:09:52;10.60;62.50
21734;DHT22;11029;47.820;10.534;2024-03-23T07:12:37;10.50;63.70
21734;DHT22;11029;47.820;10.534;2024-03-23T07:15:22;10.00;64.90
21734;DHT22;11029;47.820;10.534;2024-03-23T07:18:06;9.70;67.10
21734;DHT22;11029;47.820;10.534;2024-03-23T07:20:55;9.40;69.50
21734;DHT22;11029;47.820;10.534;2024-03-23T07:23:43;9.10;71.60
21734;DHT22;11029;47.820;10.534;2024-03-23T07:26:30;8.80;73.30
21734;DHT22;11029;47.820;10.534;2024-03-23T07:29:14;8.60;75.40
21734;DHT22;11029;47.820;10.534;2024-03-23T07:31:59;8.50;77.60
21734;DHT22;11029;47.820;10.534;2024-03-23T07:34:44;8.20;79.40
21734;DHT22;11029;47.820;10.534;2024-03-23T07:37:28;8.10;80.30
21734;DHT22;11029;47.820;10.534;2024-03-23T07:40:13;8.00;81.40
21734;DHT22;11029;47.820;10.534;2024-03-23T07:42:58;7.90;82.00
21734;DHT22;11029;47.820;10.534;2024-03-23T07:45:43;7.90;83.00
21734;DHT22;11029;47.820;10.534;2024-03-23T07:48:28;8.20;81.70
21734;DHT22;11029;47.820;10.534;2024-03-23T07:51:21;7.80;84.20
21734;DHT22;11029;47.820;10.534;2024-03-23T07:54:06;8.00;83.30
21734;DHT22;11029;47.820;10.534;2024-03-23T07:56:51;7.60;83.70
21734;DHT22;11029;47.820;10.534;2024-03-23T07:59:36;7.60;82.80
21734;DHT22;11029;47.820;10.534;2024-03-23T08:02:20;8.00;83.10
21734;DHT22;11029;47.820;10.534;2024-03-23T08:05:05;7.50;82.00
21734;DHT22;11029;47.820;10.534;2024-03-23T08:07:50;7.40;81.60
21734;DHT22;11029;47.820;10.534;2024-03-23T08:10:35;7.70;80.00
21734;DHT22;11029;47.820;10.534;2024-03-23T08:13:20;7.30;81.10
21734;DHT22;11029;47.820;10.534;2024-03-23T08:16:05;7.20;82.20
21734;DHT22;11029;47.820;10.534;2024-03-23T08:18:54;7.10;82.20
21734;DHT22;11029;47.820;10.534;2024-03-23T08:21:41;7.50;81.70
21734;DHT22;11029;47.820;10.534;2024-03-23T08:24:26;7.40;82.10
21734;DHT22;11029;47.820;10.534;2024-03-23T08:27:10;7.00;83.00
21734;DHT22;11029;47.820;10.534;2024-03-23T08:29:56;6.90;85.10
21734;DHT22;11029;47.820;10.534;2024-03-23T08:32:41;7.40;83.10
21734;DHT22;11029;47.820;10.534;2024-03-23T08:35:26;7.00;84.70
21734;DHT22;11029;47.820;10.534;2024-03-23T08:38:10;6.90;84.30
21734;DHT22;11029;47.820;10.534;2024-03-23T08:40:59;6.90;85.10
21734;DHT22;11029;47.820;10.534;2024-03-23T08:43:47;6.90;85.30
21734;DHT22;11029;47.820;10.534;2024-03-23T08:46:32;6.90;85.60
21734;DHT22;11029;47.820;10.534;2024-03-23T08:49:16;6.90;85.80
21734;DHT22;11029;47.820;10.534;2024-03-23T08:52:02;6.90;86.10
21734;DHT22;11029;47.820;10.534;2024-03-23T08:54:47;7.00;86.10
21734;DHT22;11029;47.820;10.534;2024-03-23T08:57:31;7.00;86.30
21734;DHT22;11029;47.820;10.534;2024-03-23T09:00:17;6.90;85.50
21734;DHT22;11029;47.820;10.534;2024-03-23T09:03:01;6.90;86.00
21734;DHT22;11029;47.820;10.534;2024-03-23T09:05:46;6.90;86.10
21734;DHT22;11029;47.820;10.534;2024-03-23T09:08:31;6.90;85.80
21734;DHT22;11029;47.820;10.534;2024-03-23T09:11:16;6.90;86.00
21734;DHT22;11029;47.820;10.534;2024-03-23T09:14:00;6.90;85.70
21734;DHT22;11029;47.820;10.534;2024-03-23T09:19:30;6.30;81.00
21734;DHT22;11029;47.820;10.534;2024-03-23T09:25:00;5.30;83.10
21734;DHT22;11029;47.820;10.534;2024-03-23T09:27:47;5.10;84.70
21734;DHT22;11029;47.820;10.534;2024-03-23T09:30:33;4.70;86.70
21734;DHT22;11029;47.820;10.534;2024-03-23T09:33:18;4.60;86.10
21734;DHT22;11029;47.820;10.534;2024-03-23T09:36:04;4.60;85.40
21734;DHT22;11029;47.820;10.534;2024-03-23T09:38:49;4.70;85.50
21734;DHT22;11029;47.820;10.534;2024-03-23T09:41:33;5.20;84.20
21734;DHT22;11029;47.820;10.534;2024-03-23T09:44:18;4.90;84.60
21734;DHT22;11029;47.820;10.534;2024-03-23T09:47:03;5.30;84.30
21734;DHT22;11029;47.820;10.534;2024-03-23T09:49:47;4.80;84.90
21734;DHT22;11029;47.820;10.534;2024-03-23T09:55:17;5.30;83.20
21734;DHT22;11029;47.820;10.534;2024-03-23T09:58:02;5.10;84.20
21734;DHT22;11029;47.820;10.534;2024-03-23T10:00:49;5.00;85.40
21734;DHT22;11029;47.820;10.534;2024-03-23T10:06:27;5.40;85.00
21734;DHT22;11029;47.820;10.534;2024-03-23T10:09:17;5.10;85.40
21734;DHT22;11029;47.820;10.534;2024-03-23T10:26:40;5.70;79.40
21734;DHT22;11029;47.820;10.534;2024-03-23T10:29:25;5.40;80.50
21734;DHT22;11029;47.820;10.534;2024-03-23T10:32:16;5.20;80.50
21734;DHT22;11029;47.820;10.534;2024-03-23T10:35:15;5.10;83.10
21734;DHT22;11029;47.820;10.534;2024-03-23T10:38:06;5.10;83.30
21734;DHT22;11029;47.820;10.534;2024-03-23T10:40:52;5.00;83.70
21734;DHT22;11029;47.820;10.534;2024-03-23T10:43:38;5.00;84.00
21734;DHT22;11029;47.820;10.534;2024-03-23T10:46:23;5.00;84.80
21734;DHT22;11029;47.820;10.534;2024-03-23T10:49:08;5.00;85.10
21734;DHT22;11029;47.820;10.534;2024-03-23T10:51:53;4.90;83.10
21734;DHT22;11029;47.820;10.534;2024-03-23T10:54:38;4.60;83.30
21734;DHT22;11029;47.820;10.534;2024-03-23T11:06:35;4.60;83.50
21734;DHT22;11029;47.820;10.534;2024-03-23T11:12:26;4.60;84.90
21734;DHT22;11029;47.820;10.534;2024-03-23T11:15:12;4.70;84.90
21734;DHT22;11029;47.820;10.534;2024-03-23T11:18:06;4.80;84.10
21734;DHT22;11029;47.820;10.534;2024-03-23T11:20:53;4.90;84.20
21734;DHT22;11029;47.820;10.534;2024-03-23T11:23:38;4.90;83.10
21734;DHT22;11029;47.820;10.534;2024-03-23T11:26:23;4.90;82.90
21734;DHT22;11029;47.820;10.534;2024-03-23T11:29:12;4.90;82.80
21734;DHT22;11029;47.820;10.534;2024-03-23T11:31:58;4.80;83.30
21734;DHT22;11029;47.820;10.534;2024-03-23T11:34:43;4.90;82.60
21734;DHT22;11029;47.820;10.534;2024-03-23T11:37:27;5.00;84.10
21734;DHT22;11029;47.820;10.534;2024-03-23T11:40:19;5.10;83.10
21734;DHT22;11029;47.820;10.534;2024-03-23T11:43:06;5.30;81.60
21734;DHT22;11029;47.820;10.534;2024-03-23T11:45:52;5.40;81.50
21734;DHT22;11029;47.820;10.534;2024-03-23T11:48:37;5.50;81.00
21734;DHT22;11029;47.820;10.534;2024-03-23T11:51:22;5.50;81.00
21734;DHT22;11029;47.820;10.534;2024-03-23T11:54:08;5.60;79.60
21734;DHT22;11029;47.820;10.534;2024-03-23T11:57:01;5.80;78.10
21734;DHT22;11029;47.820;10.534;2024-03-23T11:59:48;5.90;76.80
21734;DHT22;11029;47.820;10.534;2024-03-23T12:02:32;6.10;75.80
21734;DHT22;11029;47.820;10.534;2024-03-23T12:05:17;6.40;73.10
21734;DHT22;11029;47.820;10.534;2024-03-23T12:08:22;6.40;73.10
21734;DHT22;11029;47.820;10.534;2024-03-23T12:11:15;6.10;71.10
21734;DHT22;11029;47.820;10.534;2024-03-23T12:14:00;6.10;75.00
21734;DHT22;11029;47.820;10.534;2024-03-23T12:16:45;6.60;69.90
21734;DHT22;11029;47.820;10.534;2024-03-23T12:19:29;6.10;73.30
21734;DHT22;11029;47.820;10.534;2024-03-23T12:22:14;5.60;75.50
21734;DHT22;11029;47.820;10.534;2024-03-23T12:24:59;5.40;77.20
21734;DHT22;11029;47.820;10.534;2024-03-23T12:27:43;5.40;78.40
21734;DHT22;11029;47.820;10.534;2024-03-23T12:30:28;5.50;78.00
21734;DHT22;11029;47.820;10.534;2024-03-23T12:33:12;5.40;77.60
21734;DHT22;11029;47.820;10.534;2024-03-23T12:35:57;5.50;76.70
21734;DHT22;11029;47.820;10.534;2024-03-23T12:38:42;5.60;76.10
21734;DHT22;11029;47.820;10.534;2024-03-23T12:41:28;5.30;77.80
21734;DHT22;11029;47.820;10.534;2024-03-23T12:44:12;5.40;77.70
21734;DHT22;11029;47.820;10.534;2024-03-23T12:46:58;5.30;77.20
21734;DHT22;11029;47.820;10.534;2024-03-23T12:49:42;5.20;77.70
21734;DHT22;11029;47.820;10.534;2024-03-23T12:52:27;5.20;78.30
21734;DHT22;11029;47.820;10.534;2024-03-23T12:55:13;5.10;77.30
21734;DHT22;11029;47.820;10.534;2024-03-23T12:57:57;5.00;77.70
21734;DHT22;11029;47.820;10.534;2024-03-23T13:00:42;5.20;78.30
21734;DHT22;11029;47.820;10.534;2024-03-23T13:03:27;5.10;78.10
21734;DHT22;11029;47.820;10.534;2024-03-23T13:06:11;4.90;78.90
21734;DHT22;11029;47.820;10.534;2024-03-23T13:08:56;4.90;77.60
21734;DHT22;11029;47.820;10.534;2024-03-23T13:11:40;5.40;76.10
21734;DHT22;11029;47.820;10.534;2024-03-23T13:14:25;5.60;75.20
21734;DHT22;11029;47.820;10.534;2024-03-23T13:17:09;5.20;75.10
21734;DHT22;11029;47.820;10.534;2024-03-23T13:19:54;5.20;76.20
21734;DHT22;11029;47.820;10.534;2024-03-23T13:22:40;5.90;74.00
21734;DHT22;11029;47.820;10.534;2024-03-23T13:25:25;5.50;73.20
21734;DHT22;11029;47.820;10.534;2024-03-23T13:28:10;5.60;75.10
21734;DHT22;11029;47.820;10.534;2024-03-23T13:30:56;5.70;74.00
21734;DHT22;11029;47.820;10.534;2024-03-23T13:33:41;5.70;74.90
21734;DHT22;11029;47.820;10.534;2024-03-23T13:36:28;5.60;72.40
21734;DHT22;11029;47.820;10.534;2024-03-23T13:39:14;5.60;71.30
21734;DHT22;11029;47.820;10.534;2024-03-23T13:42:00;5.60;72.00
21734;DHT22;11029;47.820;10.534;2024-03-23T13:44:44;5.70;72.10
21734;DHT22;11029;47.820;10.534;2024-03-23T13:47:29;5.70;70.60
21734;DHT22;11029;47.820;10.534;2024-03-23T13:50:13;5.70;68.30
21734;DHT22;11029;47.820;10.534;2024-03-23T13:52:58;5.60;69.10
21734;DHT22;11029;47.820;10.534;2024-03-23T13:55:49;5.50;69.10
21734;DHT22;11029;47.820;10.534;2024-03-23T13:58:33;5.40;69.10
21734;DHT22;11029;47.820;10.534;2024-03-23T14:01:18;4.90;71.80
21734;DHT22;11029;47.820;10.534;2024-03-23T14:04:02;5.10;72.50
21734;DHT22;11029;47.820;10.534;2024-03-23T14:06:47;4.40;76.30
21734;DHT22;11029;47.820;10.534;2024-03-23T14:12:17;3.40;79.50
21734;DHT22;11029;47.820;10.534;2024-03-23T14:15:05;3.10;81.00
21734;DHT22;11029;47.820;10.534;2024-03-23T14:17:50;3.40;79.50
21734;DHT22;11029;47.820;10.534;2024-03-23T14:20:35;3.70;80.90
21734;DHT22;11029;47.820;10.534;2024-03-23T14:23:20;4.00;80.60
21734;DHT22;11029;47.820;10.534;2024-03-23T14:26:04;4.80;82.30
21734;DHT22;11029;47.820;10.534;2024-03-23T14:28:49;5.60;78.50
21734;DHT22;11029;47.820;10.534;2024-03-23T14:37:05;7.30;71.00
21734;DHT22;11029;47.820;10.534;2024-03-23T14:39:50;7.00;73.00
21734;DHT22;11029;47.820;10.534;2024-03-23T14:42:35;6.90;70.60
21734;DHT22;11029;47.820;10.534;2024-03-23T14:45:23;6.80;71.70
21734;DHT22;11029;47.820;10.534;2024-03-23T14:48:09;6.30;70.20
21734;DHT22;11029;47.820;10.534;2024-03-23T14:50:58;5.70;74.10
21734;DHT22;11029;47.820;10.534;2024-03-23T14:53:49;5.50;74.40
21734;DHT22;11029;47.820;10.534;2024-03-23T14:56:34;5.70;73.20
21734;DHT22;11029;47.820;10.534;2024-03-23T14:59:19;6.30;73.20
21734;DHT22;11029;47.820;10.534;2024-03-23T15:02:05;6.30;68.90
21734;DHT22;11029;47.820;10.534;2024-03-23T15:04:50;6.50;68.70
21734;DHT22;11029;47.820;10.534;2024-03-23T15:07:36;6.00;68.50
21734;DHT22;11029;47.820;10.534;2024-03-23T15:10:22;5.70;70.20
21734;DHT22;11029;47.820;10.534;2024-03-23T15:13:07;5.80;71.10
21734;DHT22;11029;47.820;10.534;2024-03-23T15:15:51;6.20;70.20
21734;DHT22;11029;47.820;10.534;2024-03-23T15:18:36;6.40;70.50
21734;DHT22;11029;47.820;10.534;2024-03-23T15:21:21;6.10;67.70
21734;DHT22;11029;47.820;10.534;2024-03-23T15:26:55;6.00;62.80
21734;DHT22;11029;47.820;10.534;2024-03-23T15:29:39;5.50;65.00
21734;DHT22;11029;47.820;10.534;2024-03-23T15:32:26;5.40;66.10
21734;DHT22;11029;47.820;10.534;2024-03-23T15:35:11;5.70;61.00
21734;DHT22;11029;47.820;10.534;2024-03-23T15:37:56;5.40;61.50
21734;DHT22;11029;47.820;10.534;2024-03-23T15:40:40;5.10;60.50
21734;DHT22;11029;47.820;10.534;2024-03-23T15:43:25;5.00;61.80
21734;DHT22;11029;47.820;10.534;2024-03-23T15:46:11;5.00;62.50
21734;DHT22;11029;47.820;10.534;2024-03-23T15:48:56;5.30;60.60
21734;DHT22;11029;47.820;10.534;2024-03-23T15:51:40;5.00;62.80
21734;DHT22;11029;47.820;10.534;2024-03-23T16:08:15;7.40;55.60
21734;DHT22;11029;47.820;10.534;2024-03-23T16:11:05;6.90;56.10
21734;DHT22;11029;47.820;10.534;2024-03-23T16:13:50;6.00;58.30
21734;DHT22;11029;47.820;10.534;2024-03-23T16:16:34;5.60;60.20
21734;DHT22;11029;47.820;10.534;2024-03-23T16:19:19;5.70;60.60
21734;DHT22;11029;47.820;10.534;2024-03-23T16:22:04;5.50;60.80
21734;DHT22;11029;47.820;10.534;2024-03-23T16:24:48;5.70;58.60
21734;DHT22;11029;47.820;10.534;2024-03-23T16:27:33;5.50;60.50
21734;DHT22;11029;47.820;10.534;2024-03-23T16:30:18;6.10;58.50
21734;DHT22;11029;47.820;10.534;2024-03-23T16:33:04;5.90;59.00
21734;DHT22;11029;47.820;10.534;2024-03-23T16:36:01;5.70;59.40
21734;DHT22;11029;47.820;10.534;2024-03-23T16:38:47;6.00;58.00
21734;DHT22;11029;47.820;10.534;2024-03-23T16:41:32;7.30;54.20
21734;DHT22;11029;47.820;10.534;2024-03-23T16:44:18;7.50;53.30
21734;DHT22;11029;47.820;10.534;2024-03-23T16:47:03;6.90;55.00
21734;DHT22;11029;47.820;10.534;2024-03-23T16:49:48;6.70;54.20
21734;DHT22;11029;47.820;10.534;2024-03-23T16:52:33;7.30;52.60
21734;DHT22;11029;47.820;10.534;2024-03-23T16:58:03;8.40;50.70
21734;DHT22;11029;47.820;10.534;2024-03-23T17:00:49;7.70;52.60
21734;DHT22;11029;47.820;10.534;2024-03-23T17:03:35;7.40;52.30
21734;DHT22;11029;47.820;10.534;2024-03-23T17:06:20;6.50;53.50
21734;DHT22;11029;47.820;10.534;2024-03-23T17:09:08;6.20;53.90
21734;DHT22;11029;47.820;10.534;2024-03-23T17:11:53;5.50;55.60
21734;DHT22;11029;47.820;10.534;2024-03-23T17:14:38;5.20;55.60
21734;DHT22;11029;47.820;10.534;2024-03-23T17:17:23;5.50;55.50
21734;DHT22;11029;47.820;10.534;2024-03-23T17:20:07;5.00;56.50
21734;DHT22;11029;47.820;10.534;2024-03-23T17:22:57;4.90;56.80
21734;DHT22;11029;47.820;10.534;2024-03-23T17:25:42;4.80;57.10
21734;DHT22;11029;47.820;10.534;2024-03-23T17:28:26;4.70;56.70
21734;DHT22;11029;47.820;10.534;2024-03-23T17:31:20;5.10;56.90
21734;DHT22;11029;47.820;10.534;2024-03-23T17:34:05;4.70;57.90
21734;DHT22;11029;47.820;10.534;2024-03-23T17:36:50;4.60;57.50
21734;DHT22;11029;47.820;10.534;2024-03-23T17:39:35;4.60;59.00
21734;DHT22;11029;47.820;10.534;2024-03-23T17:42:19;4.50;59.10
21734;DHT22;11029;47.820;10.534;2024-03-23T17:45:05;4.50;59.90
21734;DHT22;11029;47.820;10.534;2024-03-23T17:47:50;4.50;59.80
21734;DHT22;11029;47.820;10.534;2024-03-23T17:50:35;4.40;60.30
21734;DHT22;11029;47.820;10.534;2024-03-23T17:53:20;4.30;60.90
21734;DHT22;11029;47.820;10.534;2024-03-23T17:56:05;4.30;60.70
21734;DHT22;11029;47.820;10.534;2024-03-23T17:58:51;4.30;61.40
21734;DHT22;11029;47.820;10.534;2024-03-23T18:01:35;4.20;61.50
21734;DHT22;11029;47.820;10.534;2024-03-23T18:04:20;4.20;62.00
21734;DHT22;11029;47.820;10.534;2024-03-23T18:07:04;4.20;62.20
21734;DHT22;11029;47.820;10.534;2024-03-23T18:09:49;4.10;62.40
21734;DHT22;11029;47.820;10.534;2024-03-23T18:12:33;4.10;63.30
21734;DHT22;11029;47.820;10.534;2024-03-23T18:15:18;4.10;63.30
21734;DHT22;11029;47.820;10.534;2024-03-23T18:18:02;4.10;63.70
21734;DHT22;11029;47.820;10.534;2024-03-23T18:20:47;4.10;63.80
21734;DHT22;11029;47.820;10.534;2024-03-23T18:23:31;4.00;64.10
21734;DHT22;11029;47.820;10.534;2024-03-23T18:26:16;3.90;64.20
21734;DHT22;11029;47.820;10.534;2024-03-23T18:29:01;3.90;64.40
21734;DHT22;11029;47.820;10.534;2024-03-23T18:31:46;3.90;65.40
21734;DHT22;11029;47.820;10.534;2024-03-23T18:34:31;3.90;66.20
21734;DHT22;11029;47.820;10.534;2024-03-23T18:37:17;3.90;66.90
21734;DHT22;11029;47.820;10.534;2024-03-23T18:40:01;4.00;66.60
21734;DHT22;11029;47.820;10.534;2024-03-23T18:42:46;4.00;67.40
21734;DHT22;11029;47.820;10.534;2024-03-23T18:45:30;4.00;67.60
21734;DHT22;11029;47.820;10.534;2024-03-23T18:48:15;3.80;68.50
21734;DHT22;11029;47.820;10.534;2024-03-23T18:51:04;3.70;66.80
21734;DHT22;11029;47.820;10.534;2024-03-23T18:53:49;3.60;64.20
21734;DHT22;11029;47.820;10.534;2024-03-23T18:56:33;3.60;63.20
21734;DHT22;11029;47.820;10.534;2024-03-23T18:59:18;3.70;62.20
21734;DHT22;11029;47.820;10.534;2024-03-23T19:02:03;3.70;62.40
21734;DHT22;11029;47.820;10.534;2024-03-23T19:04:49;3.60;63.10
21734;DHT22;11029;47.820;10.534;2024-03-23T19:07:34;3.60;63.00
21734;DHT22;11029;47.820;10.534;2024-03-23T19:10:19;3.50;63.10
21734;DHT22;11029;47.820;10.534;2024-03-23T19:13:05;3.50;67.50
21734;DHT22;11029;47.820;10.534;2024-03-23T19:15:55;3.50;69.90
21734;DHT22;11029;47.820;10.534;2024-03-23T19:18:43;3.60;71.20
21734;DHT22;11029;47.820;10.534;2024-03-23T19:21:30;3.60;71.40